Latest Weather Observations for Tocal

IDN60801

Issued at 9:05 pm EDT Friday 31 October 2014 (issued every 30 minutes, with the page automatically refreshed every 10 minutes)

About weather observations | Map of weather stations | Latest weather observations for NSW | Other Formats
Station Details ID: 061250 Name: TOCAL AWS Lat: -32.63 Lon: 151.59 Height: 30.0 m
Data from the previous 72 hours. | See also: Recent months at Tocal
Date/Time
EDT
Temp
°C
App
Temp
°C
Dew
Point
Rel
Hum
%
Delta-T
°C
Wind Press
QNH
hPa
Press
MSL
hPa
Rain
since 9 am
mm
Dir
 
Spd
km/h
Gust
km/h
Spd
kts
Gust
kts
31/09:00pm 28.4 - 10.1 32 10.3 - - - - - - - 0.0
31/08:30pm 29.2 - 8.5 27 11.4 - - - - - - - 0.0
31/08:00pm 28.8 - 8.1 27 11.3 - - - - - - - 0.0
31/07:30pm 29.9 - 6.8 23 12.4 - - - - - - - 0.0
31/07:00pm 30.4 - 6.5 22 12.8 - - - - - - - 0.0
31/06:30pm 31.2 - 7.1 22 13.1 - - - - - - - 0.0
31/06:00pm 32.2 - 6.8 20 13.8 - - - - - - - 0.0
31/05:30pm 32.1 - 5.6 19 14.1 - - - - - - - 0.0
31/05:00pm 32.4 - 6.5 20 14.0 - - - - - - - 0.0
31/04:30pm 33.6 - 6.4 18 14.8 - - - - - - - 0.0
31/04:00pm 34.1 - 8.3 20 14.5 - - - - - - - 0.0
31/03:30pm 35.5 - 7.3 17 15.7 - - - - - - - 0.0
31/03:00pm 36.2 - 4.7 14 16.9 - - - - - - - 0.0
31/02:30pm 36.0 - 4.2 14 16.9 - - - - - - - 0.0
31/02:00pm 35.8 - 2.6 12 17.2 - - - - - - - 0.0
31/01:30pm 35.9 - 4.4 14 16.8 - - - - - - - 0.0
31/01:00pm 35.4 33.0 5.1 15 16.3 N 7 13 4 7 - - 0.0
31/12:30pm 34.9 33.5 8.9 20 14.8 E 6 15 3 8 - - 0.0
31/12:00pm 33.1 32.0 13.2 30 12.0 SE 11 17 6 9 - - 0.0
31/11:30am 31.5 30.2 12.6 31 11.2 ESE 11 13 6 7 - - 0.0
31/11:00am 29.5 28.6 13.6 37 9.5 ESE 11 15 6 8 - - 0.0
31/10:30am 29.1 28.4 13.3 37 9.4 E 9 11 5 6 - - 0.0
31/10:00am 26.5 26.1 13.0 43 7.9 SE 7 11 4 6 - - 0.0
31/09:30am 25.2 25.0 13.6 48 6.8 E 7 11 4 6 - - 0.0
31/09:00am 22.3 21.8 12.0 52 5.8 ENE 6 9 3 5 - - 0.0
31/08:30am 20.3 19.7 11.6 57 4.8 ENE 6 9 3 5 - - 0.0
31/08:00am 18.3 16.7 10.3 59 4.3 NNE 9 11 5 6 - - 0.0
31/07:30am 15.7 15.4 11.6 76 2.2 WNW 4 7 2 4 - - 0.0
31/07:00am 13.1 13.5 11.4 89 0.9 CALM 0 6 0 3 - - 0.0
31/06:30am 12.3 11.4 11.4 94 0.5 WNW 7 7 4 4 - - 0.0
31/06:00am 13.3 13.6 10.8 85 1.3 CALM 0 0 0 0 - - 0.0
31/05:30am 12.0 11.1 11.2 95 0.4 NNW 7 9 4 5 - - 0.0
31/05:00am 12.4 11.7 11.5 94 0.5 W 6 7 3 4 - - 0.0
31/04:30am 12.8 12.1 11.5 92 0.7 W 6 7 3 4 - - 0.0
31/04:00am 12.7 11.9 11.6 93 0.6 W 7 9 4 5 - - 0.0
31/03:30am 12.9 12.1 11.6 92 0.7 NW 7 7 4 4 - - 0.0
31/03:00am 13.4 12.8 11.7 89 0.9 WNW 6 7 3 4 - - 0.0
31/02:30am 13.6 13.0 11.7 88 1.0 W 6 7 3 4 - - 0.0
31/02:00am 13.6 13.8 11.7 88 1.0 WNW 2 6 1 3 - - 0.0
31/01:30am 13.9 13.4 11.9 88 1.1 NW 6 6 3 3 - - 0.0
31/01:00am 14.2 13.4 11.8 85 1.3 NW 7 7 4 4 - - 0.0
31/12:30am 14.6 14.8 12.0 84 1.4 W 2 6 1 3 - - 0.0
31/12:00am 15.5 14.9 12.2 81 1.8 WNW 7 9 4 5 - - 0.0
 
Date/Time
EDT
Temp
°C
App
Temp
°C
Dew
Point
Rel
Hum
%
Delta-T
°C
Wind Press
QNH
hPa
Press
MSL
hPa
Rain
since 9 am
mm
Dir
 
Spd
km/h
Gust
km/h
Spd
kts
Gust
kts
30/11:30pm 16.0 16.7 12.2 78 2.1 CALM 0 0 0 0 - - 0.0
30/11:00pm 16.9 17.7 12.4 75 2.5 CALM 0 0 0 0 - - 0.0
30/10:30pm 17.8 18.6 12.4 70 3.0 CALM 0 4 0 2 - - 0.0
30/10:00pm 18.1 17.7 12.5 70 3.1 W 6 9 3 5 - - 0.0
30/09:30pm 19.1 20.0 12.9 67 3.5 CALM 0 0 0 0 - - 0.0
30/09:00pm 20.9 - 12.0 56 5.0 - - - - - - - 0.0
30/08:30pm 21.6 - 11.3 52 5.7 - - - - - - - 0.0
30/08:00pm 21.8 - 11.8 53 5.6 - - - - - - - 0.0
30/07:30pm 22.9 - 12.4 51 6.0 - - - - - - - 0.0
30/07:00pm 24.3 - 12.4 47 6.8 - - - - - - - 0.0
30/06:30pm 27.1 - 11.3 37 9.0 - - - - - - - 0.0
30/06:00pm 27.6 - 10.6 34 9.6 - - - - - - - 0.0
30/05:30pm 28.0 - 12.4 38 9.1 - - - - - - - 0.0
30/05:00pm 28.7 - 14.9 43 8.4 - - - - - - - 0.0
30/04:30pm 29.6 - 14.8 40 9.0 - - - - - - - 0.0
30/04:00pm 29.9 - 13.3 36 9.9 - - - - - - - 0.0
30/03:30pm 31.4 - 2.7 16 14.5 - - - - - - - 0.0
30/03:00pm 31.4 - 2.3 15 14.6 - - - - - - - 0.0
30/02:30pm 31.2 27.2 3.0 16 14.3 W 13 26 7 14 - - 0.0
30/02:00pm 31.0 28.1 4.7 19 13.7 W 9 17 5 9 - - 0.0
30/01:30pm 31.3 28.0 6.6 21 13.3 W 13 33 7 18 - - 0.0
30/01:00pm 31.2 27.9 6.4 21 13.3 WSW 13 19 7 10 - - 0.0
30/12:30pm 30.2 26.8 6.1 22 12.8 WSW 13 22 7 12 - - 0.0
30/12:00pm 28.8 26.3 8.1 27 11.3 WNW 11 19 6 10 - - 0.0
30/11:30am 28.5 27.6 12.6 37 9.3 NNE 9 17 5 9 - - 0.0
30/11:00am 26.6 26.4 13.6 44 7.7 NNW 7 11 4 6 - - 0.0
30/10:30am 24.5 24.4 13.8 51 6.3 NNE 7 11 4 6 - - 0.0
30/10:00am 23.4 23.5 14.4 57 5.3 N 7 11 4 6 - - 0.0
30/09:30am 21.6 21.1 13.8 61 4.5 NNE 9 11 5 6 - - 0.0
30/09:00am 19.7 19.6 13.8 69 3.4 NNE 7 9 4 5 - - 0.0
30/08:30am 18.0 17.7 13.4 74 2.6 ENE 7 9 4 5 - - 0.0
30/08:00am 15.9 15.8 13.2 84 1.5 NE 6 9 3 5 - - 0.0
30/07:30am 14.5 14.7 12.9 90 0.9 SW 4 7 2 4 - - 0.0
30/07:00am 12.4 12.5 11.6 95 0.4 NNW 2 6 1 3 - - 0.0
30/06:30am 11.3 10.5 10.9 97 0.2 WNW 6 7 3 4 - - 0.0
30/06:00am 11.0 11.3 10.8 99 0.1 CALM 0 0 0 0 - - 0.0
30/05:30am 11.3 10.8 10.9 97 0.2 WSW 4 6 2 3 - - 0.0
30/05:00am 11.5 11.9 11.1 97 0.2 CALM 0 0 0 0 - - 0.0
30/04:30am 11.9 12.3 11.1 95 0.4 CALM 0 0 0 0 - - 0.0
30/04:00am 11.9 12.3 11.3 96 0.3 CALM 0 0 0 0 - - 0.0
30/03:30am 11.8 11.0 11.2 96 0.3 NNW 6 7 3 4 - - 0.0
30/03:00am 12.1 11.4 11.5 96 0.3 NNW 6 7 3 4 - - 0.0
30/02:30am 12.4 11.5 11.5 94 0.5 NNW 7 9 4 5 - - 0.0
30/02:00am 12.8 13.4 11.9 94 0.5 CALM 0 0 0 0 - - 0.0
30/01:30am 14.1 13.7 12.4 89 0.9 WSW 6 7 3 4 - - 0.0
30/01:00am 13.7 13.2 12.2 91 0.8 NW 6 7 3 4 - - 0.0
30/12:30am 14.8 14.4 12.4 85 1.3 WNW 6 7 3 4 - - 0.0
30/12:00am 16.0 14.7 12.6 80 1.9 S 11 13 6 7 - - 0.0
 
Date/Time
EDT
Temp
°C
App
Temp
°C
Dew
Point
Rel
Hum
%
Delta-T
°C
Wind Press
QNH
hPa
Press
MSL
hPa
Rain
since 9 am
mm
Dir
 
Spd
km/h
Gust
km/h
Spd
kts
Gust
kts
29/11:30pm 16.1 14.4 12.5 79 2.0 S 13 15 7 8 - - 0.0
29/11:00pm 17.7 17.1 12.3 70 3.0 SSE 7 9 4 5 - - 0.0
29/10:30pm 18.1 17.2 12.7 70 3.0 E 9 11 5 6 - - 0.0
29/10:00pm 18.6 17.7 12.7 68 3.3 ENE 9 15 5 8 - - 0.0
29/09:30pm 19.0 17.8 12.8 67 3.5 E 11 15 6 8 - - 0.0
29/09:00pm 18.7 17.7 13.4 71 3.0 ESE 11 15 6 8 - - 0.0
29/08:30pm 18.9 17.5 13.5 71 3.1 SE 13 17 7 9 - - 0.0
29/08:00pm 19.3 17.9 13.3 68 3.4 ESE 13 19 7 10 - - 0.0
29/07:30pm 19.9 - 12.8 63 4.0 - - - - - - - 0.0
29/07:00pm 20.9 - 12.8 60 4.6 - - - - - - - 0.0
29/06:30pm 21.6 - 13.0 58 4.9 - - - - - - - 0.0
29/06:00pm 22.5 - 12.7 54 5.6 - - - - - - - 0.0
29/05:30pm 23.7 - 13.4 52 6.0 - - - - - - - 0.0
29/05:00pm 24.3 - 12.4 47 6.8 - - - - - - - 0.0
29/04:30pm 25.7 - 12.6 44 7.6 - - - - - - - 0.0
29/04:00pm 26.1 - 10.1 36 8.9 - - - - - - - 0.0
29/03:30pm 25.7 - 10.2 37 8.6 - - - - - - - 0.0
29/03:00pm 25.9 - 10.0 36 8.8 - - - - - - - 0.0
29/02:30pm 26.3 - 8.9 33 9.5 - - - - - - - 0.0
29/02:00pm 26.9 22.6 7.9 30 10.2 ESE 20 28 11 15 - - 0.0
29/01:30pm 26.3 23.3 7.5 30 10.0 E 13 26 7 14 - - 0.0
29/01:00pm 27.3 24.0 6.6 27 10.9 ESE 13 24 7 13 - - 0.0
29/12:30pm 25.9 22.3 5.1 26 10.6 SW 13 19 7 10 - - 0.0
29/12:00pm 26.0 23.1 6.4 28 10.2 SE 11 19 6 10 - - 0.0
29/11:30am 24.7 22.0 5.7 29 9.7 S 9 15 5 8 - - 0.0
29/11:00am 24.6 21.6 5.8 29 9.6 SSW 11 20 6 11 - - 0.0
29/10:30am 24.5 20.8 4.7 27 9.9 SSW 13 19 7 10 - - 0.0
29/10:00am 24.2 21.6 6.0 31 9.3 WSW 9 17 5 9 - - 0.0
29/09:30am 23.0 20.8 6.1 33 8.6 SSW 7 11 4 6 - - 0.0
29/09:00am 22.2 19.9 5.7 34 8.3 W 7 11 4 6 - - 0.0
29/08:30am 20.9 19.6 5.9 37 7.5 NE 2 6 1 3 - - 0.0
29/08:00am 18.5 17.7 6.7 46 5.9 CALM 0 0 0 0 - - 0.0
29/07:30am 15.2 14.2 8.9 66 3.2 NW 4 7 2 4 - - 0.0
29/07:00am 13.9 12.3 7.8 66 3.0 SSE 6 7 3 4 - - 0.0
29/06:30am 13.4 11.7 6.0 61 3.5 WSW 4 7 2 4 - - 0.0
29/06:00am 14.2 13.1 5.3 55 4.2 CALM 0 0 0 0 - - 0.0
29/05:30am 14.2 13.1 5.0 54 4.3 CALM 0 0 0 0 - - 0.0
29/05:00am 14.7 13.2 5.1 52 4.5 ESE 2 7 1 4 - - 0.0
29/04:30am 14.2 13.1 5.3 55 4.2 CALM 0 0 0 0 - - 0.0
29/04:00am 14.3 13.1 4.6 52 4.5 CALM 0 0 0 0 - - 0.0
29/03:30am 15.0 13.8 4.5 49 4.9 CALM 0 0 0 0 - - 0.0
29/03:00am 14.4 11.9 5.0 53 4.4 NW 7 9 4 5 - - 0.0
29/02:30am 16.1 13.8 4.9 47 5.3 W 6 7 3 4 - - 0.0
29/02:00am 17.4 15.6 3.4 39 6.5 S 2 6 1 3 - - 0.0
29/01:30am 17.6 15.4 3.1 38 6.7 NNE 4 6 2 3 - - 0.0
29/01:00am 18.8 16.1 3.5 36 7.2 W 7 11 4 6 - - 0.0
29/12:30am 20.2 17.2 2.0 30 8.4 W 7 11 4 6 - - 0.0
29/12:00am 20.6 16.3 1.3 27 8.8 WSW 13 17 7 9 - - 0.0
 
Date/Time
EDT
Temp
°C
App
Temp
°C
Dew
Point
Rel
Hum
%
Delta-T
°C
Wind Press
QNH
hPa
Press
MSL
hPa
Rain
since 9 am
mm
Dir
 
Spd
km/h
Gust
km/h
Spd
kts
Gust
kts
28/11:30pm 20.8 16.9 1.0 26 9.0 WSW 11 15 6 8 - - 0.0
28/11:00pm 20.9 17.4 1.5 27 8.9 W 9 11 5 6 - - 0.0
28/10:30pm 21.8 18.7 1.1 25 9.5 WNW 7 9 4 5 - - 0.0
28/10:00pm 22.4 - 1.2 24 9.8 - - - - - - - 0.0
28/09:30pm 23.3 - 0.0 21 10.6 - - - - - - - 0.0

Other Formats:

Comma delimited format used in spreadsheet applications
http://www.bom.gov.au/fwo/IDN60801/IDN60801.94775.axf

JavaScript Object Notation format (JSON) in row-major order
http://www.bom.gov.au/fwo/IDN60801/IDN60801.94775.json